createdAt,value
2022-08-20T00:00:05.816Z,0.00
2022-08-20T00:01:05.815Z,0.00
2022-08-20T00:02:05.801Z,0.00
2022-08-20T00:03:05.712Z,0.00
2022-08-20T00:04:05.708Z,0.00
2022-08-20T00:05:05.708Z,0.00
2022-08-20T00:06:05.660Z,0.00
2022-08-20T00:07:05.661Z,0.00
2022-08-20T00:08:07.140Z,0.00
2022-08-20T00:09:06.768Z,0.00
2022-08-20T00:10:05.670Z,0.00
2022-08-20T00:11:05.600Z,0.00
2022-08-20T00:12:06.476Z,0.00
2022-08-20T00:13:05.630Z,0.00
2022-08-20T00:14:05.597Z,0.00
2022-08-20T00:15:05.566Z,0.00
2022-08-20T00:16:05.567Z,0.00
2022-08-20T00:17:05.528Z,0.00
2022-08-20T00:18:05.539Z,0.00
2022-08-20T00:19:05.544Z,0.00
2022-08-20T00:20:05.540Z,0.00
2022-08-20T00:21:05.468Z,0.00
2022-08-20T00:22:06.545Z,0.00
2022-08-20T00:23:10.220Z,0.00
2022-08-20T00:24:06.494Z,0.00
2022-08-20T00:25:05.690Z,0.00
2022-08-20T00:26:05.451Z,0.00
2022-08-20T00:27:05.409Z,0.00
2022-08-20T00:28:05.428Z,0.00
2022-08-20T00:29:05.366Z,0.00
2022-08-20T00:30:05.401Z,0.00
2022-08-20T00:31:05.355Z,0.00
2022-08-20T00:32:05.367Z,0.00
2022-08-20T00:33:05.348Z,0.00
2022-08-20T00:34:05.318Z,0.00
2022-08-20T00:35:05.373Z,0.00
2022-08-20T00:36:05.317Z,0.00
2022-08-20T00:37:05.270Z,0.00
2022-08-20T00:38:05.420Z,0.00
2022-08-20T00:39:05.273Z,0.00
2022-08-20T00:40:05.275Z,0.00
2022-08-20T00:41:06.274Z,0.00
2022-08-20T00:42:05.228Z,0.00
2022-08-20T00:43:06.067Z,0.00
2022-08-20T00:44:05.218Z,0.00
2022-08-20T00:45:05.170Z,0.00
2022-08-20T00:46:05.159Z,0.00
2022-08-20T00:47:05.269Z,0.00
2022-08-20T00:48:06.100Z,0.00
2022-08-20T00:49:05.126Z,0.00
2022-08-20T00:50:05.113Z,0.00
2022-08-20T00:51:05.075Z,0.00
2022-08-20T00:52:05.156Z,0.00
2022-08-20T00:53:05.064Z,0.00
2022-08-20T00:54:05.280Z,0.00
2022-08-20T00:55:05.032Z,0.00
2022-08-20T00:56:05.011Z,0.00
2022-08-20T00:57:05.054Z,0.00
2022-08-20T00:58:05.291Z,0.00
2022-08-20T00:59:06.063Z,0.00
2022-08-20T01:00:06.952Z,0.00
2022-08-20T01:01:05.003Z,0.00
2022-08-20T01:02:05.055Z,0.00
2022-08-20T01:03:04.956Z,0.00
2022-08-20T01:04:04.918Z,0.00
2022-08-20T01:05:04.917Z,0.00
2022-08-20T01:06:04.895Z,0.00
2022-08-20T01:07:04.887Z,0.00
2022-08-20T01:08:04.857Z,0.00
2022-08-20T01:09:04.896Z,0.00
2022-08-20T01:10:04.834Z,0.00
2022-08-20T01:11:04.877Z,0.00
2022-08-20T01:12:04.885Z,0.00
2022-08-20T01:13:04.784Z,0.00
2022-08-20T01:14:04.839Z,0.00
2022-08-20T01:15:04.858Z,0.00
2022-08-20T01:16:04.918Z,0.00
2022-08-20T01:17:04.800Z,0.00
2022-08-20T01:18:04.750Z,0.00
2022-08-20T01:19:04.739Z,0.00
2022-08-20T01:20:05.720Z,0.00
2022-08-20T01:21:04.692Z,0.00
2022-08-20T01:22:04.711Z,0.00
2022-08-20T01:23:04.705Z,0.00
2022-08-20T01:24:04.681Z,0.00
2022-08-20T01:25:04.781Z,0.00
2022-08-20T01:26:04.704Z,0.00
2022-08-20T01:27:04.633Z,0.00
2022-08-20T01:28:04.611Z,0.00
2022-08-20T01:29:04.585Z,0.00
2022-08-20T01:30:06.039Z,0.00
2022-08-20T01:31:04.551Z,0.00
2022-08-20T01:32:04.571Z,0.00
2022-08-20T01:33:04.551Z,0.00
2022-08-20T01:34:04.589Z,0.00
2022-08-20T01:35:04.507Z,0.00
2022-08-20T01:36:04.560Z,0.00
2022-08-20T01:37:04.471Z,0.00
2022-08-20T01:38:04.472Z,0.00
2022-08-20T01:39:04.503Z,0.00
2022-08-20T01:40:04.486Z,0.00
2022-08-20T01:41:04.432Z,0.00
2022-08-20T01:42:04.459Z,0.00
2022-08-20T01:43:04.417Z,0.00
2022-08-20T01:44:04.439Z,0.00
2022-08-20T01:45:04.500Z,0.00
2022-08-20T01:46:04.426Z,0.00
2022-08-20T01:47:04.383Z,0.00
2022-08-20T01:48:04.460Z,0.00
2022-08-20T01:49:04.358Z,0.00
2022-08-20T01:50:05.328Z,0.00
2022-08-20T01:51:05.171Z,0.00
2022-08-20T01:52:04.291Z,0.00
2022-08-20T01:53:05.492Z,0.00
2022-08-20T01:54:04.288Z,0.00
2022-08-20T01:55:04.307Z,0.00
2022-08-20T01:56:04.232Z,0.00
2022-08-20T01:57:04.271Z,0.00
2022-08-20T01:58:04.663Z,0.00
2022-08-20T01:59:04.420Z,0.00
2022-08-20T02:00:04.244Z,0.00
2022-08-20T02:01:04.160Z,0.00
2022-08-20T02:02:04.215Z,0.00
2022-08-20T02:03:04.151Z,0.00
2022-08-20T02:04:04.344Z,0.00
2022-08-20T02:05:04.122Z,0.00
2022-08-20T02:06:04.132Z,0.00
2022-08-20T02:07:04.161Z,0.00
2022-08-20T02:08:04.131Z,0.00
2022-08-20T02:09:04.070Z,0.00
2022-08-20T02:10:04.084Z,0.00
2022-08-20T02:11:04.083Z,0.00
2022-08-20T02:12:04.019Z,0.00
2022-08-20T02:13:04.027Z,0.00
2022-08-20T02:14:04.024Z,0.00
2022-08-20T02:15:03.983Z,0.00
2022-08-20T02:16:04.068Z,0.00
2022-08-20T02:17:03.968Z,0.00
2022-08-20T02:18:04.019Z,0.00
2022-08-20T02:19:04.166Z,0.00
2022-08-20T02:20:03.941Z,0.00
2022-08-20T02:21:03.917Z,0.00
2022-08-20T02:22:03.916Z,0.00
2022-08-20T02:23:03.876Z,0.00
2022-08-20T02:24:03.912Z,0.00
2022-08-20T02:25:03.874Z,0.00
2022-08-20T02:26:03.879Z,0.00
2022-08-20T02:27:03.831Z,0.00
2022-08-20T02:28:03.807Z,0.00
2022-08-20T02:29:03.859Z,0.00
2022-08-20T02:30:03.821Z,0.00
2022-08-20T02:31:03.788Z,0.00
2022-08-20T02:32:24.873Z,0.00
2022-08-20T02:33:04.753Z,0.00
2022-08-20T02:34:22.578Z,0.00
2022-08-20T02:35:04.727Z,0.00
2022-08-20T02:36:03.724Z,0.00
2022-08-20T02:37:03.772Z,0.00
2022-08-20T02:38:03.746Z,0.00
2022-08-20T02:39:03.663Z,0.00
2022-08-20T02:40:03.708Z,0.00
2022-08-20T02:41:03.675Z,0.00
2022-08-20T02:42:03.625Z,0.00
2022-08-20T02:43:03.695Z,0.00
2022-08-20T02:44:03.605Z,0.00
2022-08-20T02:45:03.617Z,0.00
2022-08-20T02:46:03.597Z,0.00
2022-08-20T02:47:03.614Z,0.00
2022-08-20T02:48:03.556Z,0.00
2022-08-20T02:49:03.617Z,0.00
2022-08-20T02:50:03.544Z,0.00
2022-08-20T02:51:03.552Z,0.00
2022-08-20T02:52:03.543Z,0.00
2022-08-20T02:53:03.535Z,0.00
2022-08-20T02:54:04.226Z,0.00
2022-08-20T02:55:03.471Z,0.00
2022-08-20T02:56:03.467Z,0.00
2022-08-20T02:57:03.460Z,0.00
2022-08-20T02:58:03.427Z,0.00
2022-08-20T02:59:03.431Z,0.00
2022-08-20T03:00:03.398Z,0.00
2022-08-20T03:01:03.512Z,0.00
2022-08-20T03:02:03.366Z,0.00
2022-08-20T03:03:03.480Z,0.00
2022-08-20T03:04:03.342Z,0.00
2022-08-20T03:05:03.318Z,0.00
2022-08-20T03:06:03.306Z,0.00
2022-08-20T03:07:03.332Z,0.00
2022-08-20T03:08:03.326Z,0.00
2022-08-20T03:09:03.375Z,0.00
2022-08-20T03:10:03.374Z,0.00
2022-08-20T03:11:03.251Z,0.00
2022-08-20T03:12:03.302Z,0.00
2022-08-20T03:13:03.224Z,0.00
2022-08-20T03:14:03.212Z,0.00
2022-08-20T03:15:03.232Z,0.00
2022-08-20T03:16:03.191Z,0.00
2022-08-20T03:17:03.233Z,0.00
2022-08-20T03:18:03.233Z,0.00
2022-08-20T03:19:03.145Z,0.00
2022-08-20T03:20:03.138Z,0.00
2022-08-20T03:21:03.119Z,0.00
2022-08-20T03:22:03.150Z,0.00
2022-08-20T03:23:03.202Z,0.00
2022-08-20T03:24:03.107Z,0.00
2022-08-20T03:25:03.091Z,0.00
2022-08-20T03:26:03.048Z,0.00
2022-08-20T03:27:03.051Z,0.00
2022-08-20T03:28:03.118Z,0.00
2022-08-20T03:29:03.031Z,0.00
2022-08-20T03:30:02.989Z,0.00
2022-08-20T03:31:03.028Z,0.00
2022-08-20T03:32:07.191Z,0.00
2022-08-20T03:33:02.968Z,0.00
2022-08-20T03:34:02.939Z,0.00
2022-08-20T03:35:02.929Z,0.00
2022-08-20T03:36:02.979Z,0.00
2022-08-20T03:37:02.923Z,4.00
2022-08-20T03:38:03.400Z,4.00
2022-08-20T03:39:02.949Z,4.00
2022-08-20T03:40:02.942Z,4.00
2022-08-20T03:41:02.857Z,4.00
2022-08-20T03:42:02.840Z,8.00
2022-08-20T03:43:02.845Z,4.00
2022-08-20T03:44:02.903Z,8.00
2022-08-20T03:45:03.164Z,8.00
2022-08-20T03:46:02.860Z,8.00
2022-08-20T03:47:02.898Z,12.00
2022-08-20T03:48:03.024Z,16.00
2022-08-20T03:49:02.766Z,16.00
2022-08-20T03:50:02.784Z,20.00
2022-08-20T03:51:02.713Z,20.00
2022-08-20T03:52:02.777Z,24.00
2022-08-20T03:53:02.806Z,32.00
2022-08-20T03:54:02.692Z,36.00
2022-08-20T03:55:02.679Z,40.00
2022-08-20T03:56:02.695Z,48.00
2022-08-20T03:57:02.657Z,52.00
2022-08-20T03:58:02.629Z,56.00
2022-08-20T03:59:02.664Z,64.00
2022-08-20T04:00:02.586Z,72.00
2022-08-20T04:01:02.644Z,80.00
2022-08-20T04:02:02.672Z,88.00
2022-08-20T04:03:02.660Z,96.00
2022-08-20T04:04:02.632Z,104.00
2022-08-20T04:05:02.533Z,112.00
2022-08-20T04:06:02.513Z,120.00
2022-08-20T04:07:02.605Z,132.00
2022-08-20T04:08:03.418Z,140.00
2022-08-20T04:09:02.556Z,152.00
2022-08-20T04:10:02.457Z,164.00
2022-08-20T04:11:02.450Z,176.00
2022-08-20T04:12:02.429Z,192.00
2022-08-20T04:13:02.501Z,200.00
2022-08-20T04:14:02.462Z,216.00
2022-08-20T04:15:02.519Z,232.00
2022-08-20T04:16:02.380Z,248.00
2022-08-20T04:17:02.441Z,256.00
2022-08-20T04:18:02.403Z,272.00
2022-08-20T04:19:02.838Z,284.00
2022-08-20T04:20:02.350Z,296.00
2022-08-20T04:21:02.349Z,308.00
2022-08-20T04:22:02.304Z,320.00
2022-08-20T04:23:02.305Z,340.00
2022-08-20T04:24:02.492Z,360.00
2022-08-20T04:25:02.276Z,392.00
2022-08-20T04:26:02.267Z,428.00
2022-08-20T04:27:02.320Z,472.00
2022-08-20T04:28:02.228Z,512.00
2022-08-20T04:29:02.237Z,548.00
2022-08-20T04:30:02.221Z,588.00
2022-08-20T04:31:02.197Z,628.00
2022-08-20T04:32:02.801Z,672.00
2022-08-20T04:33:02.169Z,712.00
2022-08-20T04:34:02.197Z,752.00
2022-08-20T04:35:02.276Z,792.00
2022-08-20T04:36:02.156Z,844.00
2022-08-20T04:37:02.101Z,904.00
2022-08-20T04:38:02.138Z,956.00
2022-08-20T04:39:02.131Z,1028.00
2022-08-20T04:40:02.107Z,1140.00
2022-08-20T04:41:02.071Z,1228.00
2022-08-20T04:42:02.129Z,1284.00
2022-08-20T04:43:02.034Z,1332.00
2022-08-20T04:44:02.013Z,1388.00
2022-08-20T04:45:02.021Z,1448.00
2022-08-20T04:46:02.005Z,1520.00
2022-08-20T04:47:01.974Z,1596.00
2022-08-20T04:48:01.982Z,1668.00
2022-08-20T04:49:01.978Z,1712.00
2022-08-20T04:50:01.962Z,1780.00
2022-08-20T04:51:01.954Z,1864.00
2022-08-20T04:52:01.985Z,1928.00
2022-08-20T04:53:01.972Z,1996.00
2022-08-20T04:54:01.976Z,2072.00
2022-08-20T04:55:01.899Z,2176.00
2022-08-20T04:56:01.855Z,2272.00
2022-08-20T04:57:01.915Z,2376.00
2022-08-20T04:58:01.831Z,2496.00
2022-08-20T04:59:01.820Z,2632.00
2022-08-20T05:00:01.815Z,2800.00
2022-08-20T05:01:01.874Z,2960.00
2022-08-20T05:02:01.798Z,3096.00
2022-08-20T05:03:01.768Z,3200.00
2022-08-20T05:04:01.874Z,3256.00
2022-08-20T05:05:01.799Z,3212.00
2022-08-20T05:06:01.755Z,3092.00
2022-08-20T05:07:01.789Z,2956.00
2022-08-20T05:08:01.863Z,2872.00
2022-08-20T05:09:01.677Z,2804.00
2022-08-20T05:10:01.723Z,2696.00
2022-08-20T05:11:24.973Z,2580.00
2022-08-20T05:12:02.718Z,2488.00
2022-08-20T05:13:01.621Z,2436.00
2022-08-20T05:14:01.618Z,2444.00
2022-08-20T05:15:01.608Z,2504.00
2022-08-20T05:16:01.680Z,2616.00
2022-08-20T05:17:01.689Z,2740.00
2022-08-20T05:18:01.644Z,2836.00
2022-08-20T05:19:01.555Z,2856.00
2022-08-20T05:20:01.549Z,2832.00
2022-08-20T05:21:01.511Z,2764.00
2022-08-20T05:22:01.653Z,2676.00
2022-08-20T05:23:01.535Z,2596.00
2022-08-20T05:24:01.504Z,2552.00
2022-08-20T05:25:01.463Z,2556.00
2022-08-20T05:26:01.505Z,2572.00
2022-08-20T05:27:01.454Z,2588.00
2022-08-20T05:28:01.447Z,2596.00
2022-08-20T05:29:01.407Z,2596.00
2022-08-20T05:30:01.407Z,2584.00
2022-08-20T05:31:01.391Z,2572.00
2022-08-20T05:32:01.523Z,2572.00
2022-08-20T05:33:01.365Z,2572.00
2022-08-20T05:34:01.510Z,2564.00
2022-08-20T05:35:01.334Z,2560.00
2022-08-20T05:36:01.311Z,2564.00
2022-08-20T05:37:01.388Z,2608.00
2022-08-20T05:38:01.316Z,2676.00
2022-08-20T05:39:01.330Z,2740.00
2022-08-20T05:40:01.321Z,2768.00
2022-08-20T05:41:01.248Z,2716.00
2022-08-20T05:42:01.272Z,2608.00
2022-08-20T05:43:01.272Z,2528.00
2022-08-20T05:44:01.560Z,2504.00
2022-08-20T05:45:01.220Z,2536.00
2022-08-20T05:46:01.181Z,2600.00
2022-08-20T05:47:01.192Z,2648.00
2022-08-20T05:48:03.412Z,2688.00
2022-08-20T05:49:01.161Z,2692.00
2022-08-20T05:50:01.167Z,2656.00
2022-08-20T05:51:01.109Z,2560.00
2022-08-20T05:52:01.121Z,2412.00
2022-08-20T05:53:01.133Z,2284.00
2022-08-20T05:54:01.101Z,2224.00
2022-08-20T05:55:01.134Z,2220.00
2022-08-20T05:56:01.103Z,2252.00
2022-08-20T05:57:01.063Z,2292.00
2022-08-20T05:58:01.050Z,2284.00
2022-08-20T05:59:01.071Z,2196.00
2022-08-20T06:00:01.114Z,2048.00
2022-08-20T06:01:01.093Z,1900.00
2022-08-20T06:02:00.994Z,1788.00
2022-08-20T06:03:00.963Z,1704.00
2022-08-20T06:04:00.947Z,1672.00
2022-08-20T06:05:00.956Z,1676.00
2022-08-20T06:06:00.927Z,1708.00
2022-08-20T06:07:00.967Z,1760.00
2022-08-20T06:08:07.307Z,1832.00
2022-08-20T06:09:01.882Z,1912.00
2022-08-20T06:10:00.940Z,2012.00
2022-08-20T06:11:00.900Z,2116.00
2022-08-20T06:12:00.837Z,2212.00
2022-08-20T06:13:00.908Z,2280.00
2022-08-20T06:14:00.827Z,2324.00
2022-08-20T06:15:00.832Z,2376.00
2022-08-20T06:16:00.911Z,2424.00
2022-08-20T06:17:01.787Z,2480.00
2022-08-20T06:18:01.676Z,2532.00
2022-08-20T06:19:02.730Z,2596.00
2022-08-20T06:20:00.771Z,2668.00
2022-08-20T06:21:00.759Z,2748.00
2022-08-20T06:22:00.953Z,2836.00
2022-08-20T06:23:00.714Z,2904.00
2022-08-20T06:24:02.231Z,2924.00
2022-08-20T06:25:00.701Z,2880.00
2022-08-20T06:26:00.664Z,2812.00
2022-08-20T06:27:00.777Z,2756.00
2022-08-20T06:28:00.679Z,2732.00
2022-08-20T06:29:00.620Z,2728.00
2022-08-20T06:30:01.465Z,2736.00
2022-08-20T06:31:00.598Z,2772.00
2022-08-20T06:32:00.586Z,2840.00
2022-08-20T06:33:00.563Z,2900.00
2022-08-20T06:34:00.734Z,2904.00
2022-08-20T06:35:01.442Z,2876.00
2022-08-20T06:36:00.605Z,2864.00
2022-08-20T06:37:00.547Z,2912.00
2022-08-20T06:38:00.543Z,3032.00
2022-08-20T06:39:00.505Z,3184.00
2022-08-20T06:40:00.653Z,3312.00
2022-08-20T06:41:00.487Z,3400.00
2022-08-20T06:42:00.447Z,3424.00
2022-08-20T06:43:00.507Z,3448.00
2022-08-20T06:44:00.475Z,3464.00
2022-08-20T06:45:00.462Z,3436.00
2022-08-20T06:46:00.496Z,3388.00
2022-08-20T06:47:01.329Z,3324.00
2022-08-20T06:48:01.230Z,3264.00
2022-08-20T06:49:00.472Z,3224.00
2022-08-20T06:50:00.395Z,3196.00
2022-08-20T06:51:00.412Z,3184.00
2022-08-20T06:52:00.380Z,3176.00
2022-08-20T06:53:00.322Z,3200.00
2022-08-20T06:54:00.348Z,3268.00
2022-08-20T06:55:00.279Z,3392.00
2022-08-20T06:56:00.331Z,3580.00
2022-08-20T06:57:00.344Z,3744.00
2022-08-20T06:58:00.310Z,3920.00
2022-08-20T06:59:00.242Z,4100.00
2022-08-20T07:00:00.254Z,4308.00
2022-08-20T07:01:04.475Z,4512.00
2022-08-20T07:02:01.183Z,4696.00
2022-08-20T07:03:00.250Z,4848.00
2022-08-20T07:04:00.244Z,4980.00
2022-08-20T07:05:00.233Z,5052.00
2022-08-20T07:06:00.209Z,5008.00
2022-08-20T07:07:00.421Z,4760.00
2022-08-20T07:08:00.117Z,4392.00
2022-08-20T07:09:00.363Z,4096.00
2022-08-20T07:10:00.132Z,3880.00
2022-08-20T07:11:00.115Z,3724.00
2022-08-20T07:12:00.977Z,3612.00
2022-08-20T07:13:00.072Z,3556.00
2022-08-20T07:14:00.116Z,3464.00
2022-08-20T07:15:00.050Z,3384.00
2022-08-20T07:16:00.006Z,3324.00
2022-08-20T07:17:00.001Z,3288.00
2022-08-20T07:18:01.450Z,3260.00
2022-08-20T07:19:00.092Z,3300.00
2022-08-20T07:19:59.999Z,3420.00
2022-08-20T07:21:00.010Z,3540.00
2022-08-20T07:22:00.174Z,3652.00
2022-08-20T07:22:59.912Z,3732.00
2022-08-20T07:23:59.905Z,3816.00
2022-08-20T07:24:59.879Z,3896.00
2022-08-20T07:25:59.880Z,3996.00
2022-08-20T07:26:59.882Z,4104.00
2022-08-20T07:27:59.855Z,4188.00
2022-08-20T07:28:59.833Z,4300.00
2022-08-20T07:29:59.816Z,4480.00
2022-08-20T07:30:59.855Z,4676.00
2022-08-20T07:32:00.856Z,4884.00
2022-08-20T07:32:59.784Z,5116.00
2022-08-20T07:33:59.885Z,5320.00
2022-08-20T07:34:59.744Z,5436.00
2022-08-20T07:35:59.735Z,5412.00
2022-08-20T07:36:59.778Z,5240.00
2022-08-20T07:37:59.743Z,4892.00
2022-08-20T07:38:59.720Z,4448.00
2022-08-20T07:40:00.726Z,3984.00
2022-08-20T07:40:59.688Z,3608.00
2022-08-20T07:41:59.676Z,3372.00
2022-08-20T07:42:59.677Z,3284.00
2022-08-20T07:43:59.629Z,3296.00
2022-08-20T07:44:59.744Z,3380.00
2022-08-20T07:45:59.649Z,3544.00
2022-08-20T07:46:59.877Z,3780.00
2022-08-20T07:47:59.646Z,4076.00
2022-08-20T07:48:59.598Z,4412.00
2022-08-20T07:49:59.689Z,4728.00
2022-08-20T07:50:59.645Z,5000.00
2022-08-20T07:51:59.867Z,5236.00
2022-08-20T07:52:59.571Z,5400.00
2022-08-20T07:53:59.528Z,5516.00
2022-08-20T07:54:59.490Z,5532.00
2022-08-20T07:55:59.625Z,5468.00
2022-08-20T07:56:59.451Z,5396.00
2022-08-20T07:57:59.492Z,5388.00
2022-08-20T07:58:59.443Z,5520.00
2022-08-20T07:59:59.421Z,5792.00
2022-08-20T08:00:59.535Z,6156.00
2022-08-20T08:01:59.411Z,6572.00
2022-08-20T08:02:59.592Z,6912.00
2022-08-20T08:03:59.413Z,7136.00
2022-08-20T08:04:59.373Z,7288.00
2022-08-20T08:05:59.396Z,7368.00
2022-08-20T08:06:59.356Z,7436.00
2022-08-20T08:07:59.314Z,7604.00
2022-08-20T08:08:59.476Z,8032.00
2022-08-20T08:09:59.343Z,8428.00
2022-08-20T08:10:59.300Z,8688.00
2022-08-20T08:11:59.316Z,8700.00
2022-08-20T08:12:59.287Z,8528.00
2022-08-20T08:13:59.256Z,8272.00
2022-08-20T08:14:59.342Z,8052.00
2022-08-20T08:15:59.309Z,8068.00
2022-08-20T08:16:59.190Z,8320.00
2022-08-20T08:17:59.192Z,8716.00
2022-08-20T08:18:59.278Z,9356.00
2022-08-20T08:19:59.177Z,10144.00
2022-08-20T08:20:59.161Z,10988.00
2022-08-20T08:21:59.151Z,11780.00
2022-08-20T08:22:59.135Z,12376.00
2022-08-20T08:23:59.186Z,12720.00
2022-08-20T08:24:59.101Z,12884.00
2022-08-20T08:25:59.080Z,12864.00
2022-08-20T08:26:59.100Z,12840.00
2022-08-20T08:27:59.084Z,12892.00
2022-08-20T08:28:59.127Z,13144.00
2022-08-20T08:29:59.113Z,13564.00
2022-08-20T08:30:59.026Z,14044.00
2022-08-20T08:31:59.000Z,14356.00
2022-08-20T08:32:58.984Z,14364.00
2022-08-20T08:33:59.004Z,14180.00
2022-08-20T08:34:58.983Z,13888.00
2022-08-20T08:35:59.121Z,13544.00
2022-08-20T08:36:59.027Z,13256.00
2022-08-20T08:37:58.923Z,13108.00
2022-08-20T08:38:58.929Z,13124.00
2022-08-20T08:39:59.085Z,13240.00
2022-08-20T08:41:00.454Z,13404.00
2022-08-20T08:41:58.948Z,13660.00
2022-08-20T08:42:59.086Z,13984.00
2022-08-20T08:43:58.928Z,14432.00
2022-08-20T08:44:58.830Z,14960.00
2022-08-20T08:45:58.833Z,15504.00
2022-08-20T08:46:58.799Z,16096.00
2022-08-20T08:47:58.793Z,16448.00
2022-08-20T08:48:58.780Z,16608.00
2022-08-20T08:49:58.759Z,16640.00
2022-08-20T08:50:58.819Z,16640.00
2022-08-20T08:51:58.739Z,16640.00
2022-08-20T08:52:58.732Z,16640.00
2022-08-20T08:54:04.662Z,16544.00
2022-08-20T08:54:59.700Z,16384.00
2022-08-20T08:55:58.813Z,16224.00
2022-08-20T08:56:58.683Z,16128.00
2022-08-20T08:57:58.653Z,16000.00
2022-08-20T08:58:59.683Z,15904.00
2022-08-20T09:00:03.872Z,15904.00
2022-08-20T09:01:01.982Z,16064.00
2022-08-20T09:01:59.730Z,16352.00
2022-08-20T09:02:58.849Z,16640.00
2022-08-20T09:03:58.662Z,16896.00
2022-08-20T09:04:58.559Z,17120.00
2022-08-20T09:05:58.609Z,17312.00
2022-08-20T09:06:58.587Z,17408.00
2022-08-20T09:07:58.553Z,17216.00
2022-08-20T09:08:58.540Z,16736.00
2022-08-20T09:09:58.497Z,15936.00
2022-08-20T09:10:58.528Z,14940.00
2022-08-20T09:11:58.585Z,14352.00
2022-08-20T09:12:58.523Z,14020.00
2022-08-20T09:13:58.452Z,13676.00
2022-08-20T09:14:58.463Z,13308.00
2022-08-20T09:15:58.583Z,12980.00
2022-08-20T09:16:58.466Z,12728.00
2022-08-20T09:17:58.599Z,12328.00
2022-08-20T09:18:58.440Z,11828.00
2022-08-20T09:19:58.670Z,11456.00
2022-08-20T09:20:58.445Z,11260.00
2022-08-20T09:21:58.467Z,11100.00
2022-08-20T09:22:58.471Z,10868.00
2022-08-20T09:23:58.332Z,10544.00
2022-08-20T09:24:58.304Z,10200.00
2022-08-20T09:25:58.373Z,10024.00
2022-08-20T09:26:58.281Z,10024.00
2022-08-20T09:27:58.375Z,10176.00
2022-08-20T09:28:58.335Z,10372.00
2022-08-20T09:29:58.327Z,10456.00
2022-08-20T09:30:58.325Z,10732.00
2022-08-20T09:31:59.315Z,11188.00
2022-08-20T09:32:58.488Z,11668.00
2022-08-20T09:33:58.217Z,11992.00
2022-08-20T09:34:58.219Z,12008.00
2022-08-20T09:35:58.189Z,11788.00
2022-08-20T09:36:58.139Z,11440.00
2022-08-20T09:37:58.320Z,11152.00
2022-08-20T09:38:58.126Z,10980.00
2022-08-20T09:39:58.134Z,10904.00
2022-08-20T09:40:58.159Z,10956.00
2022-08-20T09:41:58.118Z,11028.00
2022-08-20T09:42:58.418Z,11092.00
2022-08-20T09:43:58.091Z,11076.00
2022-08-20T09:44:58.113Z,10900.00
2022-08-20T09:45:58.172Z,10668.00
2022-08-20T09:46:58.031Z,10492.00
2022-08-20T09:47:58.158Z,10448.00
2022-08-20T09:48:57.981Z,10500.00
2022-08-20T09:49:57.973Z,10540.00
2022-08-20T09:50:57.976Z,10500.00
2022-08-20T09:51:57.945Z,10460.00
2022-08-20T09:52:57.941Z,10512.00
2022-08-20T09:53:57.947Z,10712.00
2022-08-20T09:54:57.927Z,11056.00
2022-08-20T09:55:57.937Z,11416.00
2022-08-20T09:56:57.885Z,11820.00
2022-08-20T09:57:58.293Z,12200.00
2022-08-20T09:59:02.306Z,12668.00
2022-08-20T09:59:58.871Z,13268.00
2022-08-20T10:00:57.898Z,13768.00
2022-08-20T10:01:57.910Z,14140.00
2022-08-20T10:02:57.864Z,14472.00
2022-08-20T10:03:57.785Z,14748.00
2022-08-20T10:04:57.872Z,14980.00
2022-08-20T10:05:57.778Z,15240.00
2022-08-20T10:06:57.827Z,15552.00
2022-08-20T10:07:57.901Z,16000.00
2022-08-20T10:08:57.791Z,16352.00
2022-08-20T10:09:57.842Z,16768.00
2022-08-20T10:10:57.718Z,16928.00
2022-08-20T10:11:57.681Z,16768.00
2022-08-20T10:12:57.673Z,16448.00
2022-08-20T10:13:57.700Z,16064.00
2022-08-20T10:14:57.725Z,15308.00
2022-08-20T10:15:57.645Z,14268.00
2022-08-20T10:16:59.907Z,13048.00
2022-08-20T10:17:57.880Z,12064.00
2022-08-20T10:18:57.725Z,11440.00
2022-08-20T10:19:57.579Z,11040.00
2022-08-20T10:20:57.663Z,10740.00
2022-08-20T10:21:57.556Z,10516.00
2022-08-20T10:22:57.604Z,10352.00
2022-08-20T10:23:57.580Z,10244.00
2022-08-20T10:24:57.533Z,10196.00
2022-08-20T10:25:57.557Z,10068.00
2022-08-20T10:26:57.486Z,9952.00
2022-08-20T10:27:57.689Z,10056.00
2022-08-20T10:28:57.476Z,10304.00
2022-08-20T10:29:57.539Z,10484.00
2022-08-20T10:30:57.464Z,10576.00
2022-08-20T10:31:57.430Z,10508.00
2022-08-20T10:32:57.428Z,10316.00
2022-08-20T10:33:57.428Z,10072.00
2022-08-20T10:34:57.416Z,9920.00
2022-08-20T10:36:00.034Z,9908.00
2022-08-20T10:36:57.449Z,9856.00
2022-08-20T10:37:57.507Z,9852.00
2022-08-20T10:38:57.358Z,9920.00
2022-08-20T10:39:57.458Z,10192.00
2022-08-20T10:40:57.320Z,10612.00
2022-08-20T10:41:57.340Z,11000.00
2022-08-20T10:42:57.282Z,11180.00
2022-08-20T10:43:57.306Z,11208.00
2022-08-20T10:44:57.272Z,11196.00
2022-08-20T10:45:57.274Z,11264.00
2022-08-20T10:46:57.387Z,11444.00
2022-08-20T10:47:57.337Z,11712.00
2022-08-20T10:48:58.067Z,12024.00
2022-08-20T10:49:57.255Z,12380.00
2022-08-20T10:50:57.257Z,12728.00
2022-08-20T10:51:57.256Z,12980.00
2022-08-20T10:52:57.157Z,13084.00
2022-08-20T10:53:57.138Z,13104.00
2022-08-20T10:54:57.197Z,13088.00
2022-08-20T10:55:57.277Z,13020.00
2022-08-20T10:56:57.140Z,12928.00
2022-08-20T10:57:57.249Z,12836.00
2022-08-20T10:58:57.076Z,12736.00
2022-08-20T10:59:57.053Z,12644.00
2022-08-20T11:00:58.519Z,12528.00
2022-08-20T11:01:57.075Z,12424.00
2022-08-20T11:02:57.065Z,12460.00
2022-08-20T11:03:57.024Z,12600.00
2022-08-20T11:04:57.003Z,12772.00
2022-08-20T11:05:57.054Z,13000.00
2022-08-20T11:06:57.011Z,13280.00
2022-08-20T11:07:56.987Z,13740.00
2022-08-20T11:08:57.245Z,14308.00
2022-08-20T11:09:56.975Z,14960.00
2022-08-20T11:10:56.916Z,15776.00
2022-08-20T11:11:56.962Z,16448.00
2022-08-20T11:12:56.938Z,16960.00
2022-08-20T11:13:56.934Z,17344.00
2022-08-20T11:14:56.920Z,17664.00
2022-08-20T11:15:56.985Z,17824.00
2022-08-20T11:16:56.890Z,17952.00
2022-08-20T11:17:57.068Z,18048.00
2022-08-20T11:18:56.837Z,18112.00
2022-08-20T11:19:56.795Z,18176.00
2022-08-20T11:20:56.783Z,18304.00
2022-08-20T11:21:56.799Z,18496.00
2022-08-20T11:22:56.756Z,18592.00
2022-08-20T11:23:59.862Z,18496.00
2022-08-20T11:24:57.767Z,18432.00
2022-08-20T11:25:56.782Z,18272.00
2022-08-20T11:26:57.493Z,18176.00
2022-08-20T11:27:56.927Z,18208.00
2022-08-20T11:28:56.699Z,18368.00
2022-08-20T11:29:56.660Z,18624.00
2022-08-20T11:30:56.675Z,19072.00
2022-08-20T11:31:56.671Z,19744.00
2022-08-20T11:32:56.655Z,20480.00
2022-08-20T11:33:56.624Z,20928.00
2022-08-20T11:34:56.594Z,21088.00
2022-08-20T11:35:56.631Z,21152.00
2022-08-20T11:36:56.657Z,21408.00
2022-08-20T11:37:56.793Z,21920.00
2022-08-20T11:38:56.557Z,22688.00
2022-08-20T11:39:56.790Z,23328.00
2022-08-20T11:40:56.559Z,23584.00
2022-08-20T11:41:56.528Z,23392.00
2022-08-20T11:44:19.974Z,22304.00
2022-08-20T11:44:57.519Z,21920.00
2022-08-20T11:45:56.476Z,21984.00
2022-08-20T11:46:56.458Z,22336.00
2022-08-20T11:47:56.588Z,22688.00
2022-08-20T11:48:56.433Z,22976.00
2022-08-20T11:49:56.427Z,23136.00
2022-08-20T11:50:56.441Z,23360.00
2022-08-20T11:51:56.413Z,23520.00
2022-08-20T11:52:56.432Z,23648.00
2022-08-20T11:53:56.387Z,23296.00
2022-08-20T11:54:56.380Z,22944.00
2022-08-20T11:55:56.332Z,22944.00
2022-08-20T11:56:56.312Z,23392.00
2022-08-20T11:57:56.419Z,24096.00
2022-08-20T11:58:56.352Z,24480.00
2022-08-20T11:59:56.274Z,24544.00
2022-08-20T12:00:56.318Z,24512.00
2022-08-20T12:02:03.305Z,24544.00
2022-08-20T12:02:57.449Z,24736.00
2022-08-20T12:03:56.234Z,25120.00
2022-08-20T12:04:56.237Z,25504.00
2022-08-20T12:05:56.203Z,25760.00
2022-08-20T12:06:56.217Z,26080.00
2022-08-20T12:07:56.196Z,26464.00
2022-08-20T12:08:56.184Z,26784.00
2022-08-20T12:09:56.146Z,26496.00
2022-08-20T12:10:56.145Z,25664.00
2022-08-20T12:11:56.151Z,24672.00
2022-08-20T12:12:56.652Z,24096.00
2022-08-20T12:13:56.139Z,24160.00
2022-08-20T12:14:56.085Z,24864.00
2022-08-20T12:15:56.067Z,25376.00
2022-08-20T12:16:56.117Z,23648.00
2022-08-20T12:17:56.053Z,19968.00
2022-08-20T12:18:56.102Z,16672.00
2022-08-20T12:19:56.020Z,14020.00
2022-08-20T12:20:56.007Z,11764.00
2022-08-20T12:21:56.049Z,9744.00